createdAt,value
2022-10-18T00:02:13.346Z,102700.13
2022-10-18T00:04:39.960Z,102711.13
2022-10-18T00:07:06.395Z,102707.44
2022-10-18T00:09:33.377Z,102697.66
2022-10-18T00:12:00.752Z,102695.81
2022-10-18T00:14:27.201Z,102691.94
2022-10-18T00:16:53.707Z,102702.91
2022-10-18T00:19:20.145Z,102704.53
2022-10-18T00:21:46.534Z,102701.06
2022-10-18T00:24:12.966Z,102693.94
2022-10-18T00:26:39.402Z,102706.75
2022-10-18T00:29:07.000Z,102700.66
2022-10-18T00:31:37.996Z,102702.47
2022-10-18T00:34:08.087Z,102710.44
2022-10-18T00:36:34.935Z,102708.59
2022-10-18T00:39:03.052Z,102707.78
2022-10-18T00:41:32.399Z,102710.44
2022-10-18T00:44:04.365Z,102713.50
2022-10-18T00:46:39.505Z,102709.25
2022-10-18T00:49:15.564Z,102707.81
2022-10-18T00:51:49.853Z,102710.69
2022-10-18T00:54:18.064Z,102707.44
2022-10-18T00:56:45.410Z,102708.47
2022-10-18T00:59:15.020Z,102714.78
2022-10-18T01:01:41.760Z,102720.91
2022-10-18T01:04:08.331Z,102727.00
2022-10-18T01:06:50.078Z,102727.00
2022-10-18T01:09:30.037Z,102723.75
2022-10-18T01:12:04.442Z,102721.53
2022-10-18T01:14:36.894Z,102720.38
2022-10-18T01:17:31.863Z,102730.34
2022-10-18T01:20:25.653Z,102723.84
2022-10-18T01:23:03.094Z,102715.91
2022-10-18T01:25:40.137Z,102718.56
2022-10-18T01:28:27.350Z,102726.72
2022-10-18T01:31:01.363Z,102732.81
2022-10-18T01:33:38.617Z,102737.09
2022-10-18T01:36:17.070Z,102741.38
2022-10-18T01:38:44.912Z,102743.81
2022-10-18T01:41:15.752Z,102736.06
2022-10-18T01:43:45.381Z,102741.16
2022-10-18T01:46:15.681Z,102734.44
2022-10-18T01:48:42.548Z,102739.75
2022-10-18T01:51:09.279Z,102733.25
2022-10-18T01:53:35.870Z,102727.56
2022-10-18T01:56:41.001Z,102724.53
2022-10-18T01:59:22.588Z,102726.97
2022-10-18T02:02:21.148Z,102737.59
2022-10-18T02:04:56.037Z,102728.44
2022-10-18T02:07:42.639Z,102729.50
2022-10-18T02:12:49.158Z,102729.72
2022-10-18T02:15:22.192Z,102725.66
2022-10-18T02:17:48.623Z,102730.53
2022-10-18T02:20:20.064Z,102732.41
2022-10-18T02:22:49.509Z,102737.91
2022-10-18T02:25:21.237Z,102737.91
2022-10-18T02:27:47.828Z,102728.94
2022-10-18T02:30:15.710Z,102734.22
2022-10-18T02:32:51.769Z,102735.88
2022-10-18T02:35:29.271Z,102740.97
2022-10-18T02:37:58.035Z,102736.69
2022-10-18T02:40:25.723Z,102745.66
2022-10-18T02:42:57.389Z,102731.81
2022-10-18T02:45:25.420Z,102740.19
2022-10-18T02:47:52.471Z,102728.19
2022-10-18T02:50:19.170Z,102736.34
2022-10-18T02:52:45.645Z,102738.19
2022-10-18T02:55:12.067Z,102744.09
2022-10-18T02:57:38.529Z,102746.34
2022-10-18T03:00:06.018Z,102736.78
2022-10-18T03:02:32.505Z,102733.53
2022-10-18T03:04:58.998Z,102725.78
2022-10-18T03:07:25.569Z,102723.34
2022-10-18T03:09:52.005Z,102730.69
2022-10-18T03:12:18.531Z,102731.91
2022-10-18T03:14:44.939Z,102739.22
2022-10-18T03:17:11.410Z,102738.03
2022-10-18T03:19:38.727Z,102733.94
2022-10-18T03:22:05.601Z,102738.41
2022-10-18T03:24:32.179Z,102742.28
2022-10-18T03:26:58.591Z,102735.38
2022-10-18T03:29:25.018Z,102732.31
2022-10-18T03:31:51.415Z,102750.63
2022-10-18T03:34:18.083Z,102745.53
2022-10-18T03:36:44.495Z,102747.97
2022-10-18T03:39:11.375Z,102742.06
2022-10-18T03:41:37.798Z,102741.47
2022-10-18T03:44:04.413Z,102748.56
2022-10-18T03:46:30.864Z,102748.41
2022-10-18T03:48:57.326Z,102741.28
2022-10-18T03:51:23.778Z,102739.66
2022-10-18T03:53:50.187Z,102745.94
2022-10-18T03:56:16.582Z,102751.22
2022-10-18T03:58:43.057Z,102748.78
2022-10-18T04:01:09.549Z,102745.72
2022-10-18T04:03:36.013Z,102749.75
2022-10-18T04:06:03.593Z,102732.31
2022-10-18T04:08:30.456Z,102737.78
2022-10-18T04:10:56.926Z,102746.94
2022-10-18T04:13:23.396Z,102744.69
2022-10-18T04:15:49.841Z,102742.03
2022-10-18T04:18:16.275Z,102733.88
2022-10-18T04:20:42.740Z,102748.91
2022-10-18T04:23:09.151Z,102750.94
2022-10-18T04:25:35.622Z,102749.72
2022-10-18T04:28:02.197Z,102745.84
2022-10-18T04:30:28.618Z,102735.47
2022-10-18T04:32:55.318Z,102750.50
2022-10-18T04:35:24.457Z,102744.00
2022-10-18T04:37:50.926Z,102732.84
2022-10-18T04:40:17.510Z,102741.34
2022-10-18T04:42:44.010Z,102740.53
2022-10-18T04:45:11.067Z,102742.75
2022-10-18T04:47:37.482Z,102749.44
2022-10-18T04:50:05.156Z,102741.72
2022-10-18T04:52:31.899Z,102740.28
2022-10-18T04:54:58.336Z,102744.75
2022-10-18T04:57:24.744Z,102748.19
2022-10-18T04:59:51.279Z,102745.94
2022-10-18T05:02:17.734Z,102748.16
2022-10-18T05:04:44.168Z,102746.72
2022-10-18T05:07:10.649Z,102748.56
2022-10-18T05:09:37.102Z,102747.34
2022-10-18T05:12:03.676Z,102752.00
2022-10-18T05:14:30.190Z,102753.00
2022-10-18T05:16:56.629Z,102756.84
2022-10-18T05:19:23.126Z,102748.94
2022-10-18T05:21:49.584Z,102757.03
2022-10-18T05:24:16.025Z,102769.63
2022-10-18T05:26:42.460Z,102762.91
2022-10-18T05:29:08.965Z,102769.19
2022-10-18T05:31:35.506Z,102771.41
2022-10-18T05:34:02.226Z,102777.28
2022-10-18T05:36:28.742Z,102777.09
2022-10-18T05:38:56.294Z,102772.63
2022-10-18T05:41:23.399Z,102779.94
2022-10-18T05:43:49.804Z,102776.47
2022-10-18T05:46:16.251Z,102783.38
2022-10-18T05:48:44.589Z,102782.38
2022-10-18T05:51:11.702Z,102789.47
2022-10-18T05:53:38.487Z,102782.00
2022-10-18T05:56:06.170Z,102787.47
2022-10-18T05:58:33.277Z,102789.28
2022-10-18T06:01:03.946Z,102793.75
2022-10-18T06:03:30.865Z,102800.22
2022-10-18T06:06:02.305Z,102807.94
2022-10-18T06:08:28.813Z,102815.03
2022-10-18T06:10:55.585Z,102817.88
2022-10-18T06:13:22.091Z,102814.41
2022-10-18T06:15:48.665Z,102814.00
2022-10-18T06:18:15.508Z,102823.47
2022-10-18T06:20:42.057Z,102831.38
2022-10-18T06:23:08.531Z,102828.91
2022-10-18T06:25:35.008Z,102824.47
2022-10-18T06:28:01.457Z,102830.75
2022-10-18T06:30:27.856Z,102847.16
2022-10-18T06:32:54.329Z,102850.94
2022-10-18T06:35:20.736Z,102840.97
2022-10-18T06:37:47.138Z,102842.16
2022-10-18T06:40:13.985Z,102848.63
2022-10-18T06:42:40.464Z,102851.09
2022-10-18T06:45:07.490Z,102856.16
2022-10-18T06:47:33.927Z,102858.00
2022-10-18T06:50:00.364Z,102870.16
2022-10-18T06:52:26.894Z,102868.78
2022-10-18T06:54:53.836Z,102863.31
2022-10-18T06:57:21.285Z,102876.50
2022-10-18T06:59:47.738Z,102876.53
2022-10-18T07:02:16.282Z,102881.25
2022-10-18T07:04:43.229Z,102891.50
2022-10-18T07:07:09.886Z,102887.47
2022-10-18T07:09:36.339Z,102887.72
2022-10-18T07:12:02.835Z,102896.50
2022-10-18T07:14:29.367Z,102903.63
2022-10-18T07:16:59.080Z,102890.88
2022-10-18T07:19:25.676Z,102897.84
2022-10-18T07:21:52.090Z,102903.34
2022-10-18T07:24:18.582Z,102899.94
2022-10-18T07:26:45.182Z,102896.91
2022-10-18T07:29:49.602Z,102898.56
2022-10-18T07:32:16.086Z,102901.88
2022-10-18T07:34:42.526Z,102913.28
2022-10-18T07:37:09.995Z,102915.78
2022-10-18T07:39:36.466Z,102920.50
2022-10-18T07:42:02.914Z,102910.16
2022-10-18T07:44:29.376Z,102918.72
2022-10-18T07:46:55.889Z,102915.06
2022-10-18T07:49:22.483Z,102918.13
2022-10-18T07:51:48.968Z,102912.66
2022-10-18T07:54:20.446Z,102929.16
2022-10-18T08:01:14.931Z,102943.47
2022-10-18T08:07:38.457Z,102937.22
2022-10-18T08:10:54.667Z,102941.50
2022-10-18T08:13:21.295Z,102951.28
2022-10-18T08:15:48.367Z,102948.03
2022-10-18T08:18:15.119Z,102949.25
2022-10-18T08:20:49.684Z,102949.84
2022-10-18T08:23:16.121Z,102952.50
2022-10-18T08:25:42.535Z,102950.69
2022-10-18T08:28:09.118Z,102952.53
2022-10-18T08:30:35.909Z,102959.63
2022-10-18T08:33:03.191Z,102966.94
2022-10-18T08:35:29.613Z,102964.09
2022-10-18T08:37:56.122Z,102950.22
2022-10-18T08:40:22.759Z,102947.59
2022-10-18T08:43:21.753Z,102946.31
2022-10-18T08:45:50.989Z,102953.44
2022-10-18T08:48:29.687Z,102949.16
2022-10-18T08:50:57.544Z,102942.19
2022-10-18T08:53:26.660Z,102946.66
2022-10-18T08:56:00.782Z,102949.72
2022-10-18T08:58:31.653Z,102946.63
2022-10-18T09:01:26.015Z,102953.31
2022-10-18T09:04:30.309Z,102951.47
2022-10-18T09:07:08.900Z,102951.66
2022-10-18T09:09:41.383Z,102950.22
2022-10-18T09:13:15.367Z,102956.25
2022-10-18T09:19:46.789Z,102972.91
2022-10-18T09:22:19.172Z,102963.09
2022-10-18T09:24:54.430Z,102958.19
2022-10-18T09:27:43.789Z,102964.84
2022-10-18T09:30:20.600Z,102975.75
2022-10-18T09:33:24.330Z,102975.31
2022-10-18T09:35:56.902Z,102974.28
2022-10-18T09:42:18.057Z,102976.03
2022-10-18T09:45:14.367Z,102972.94
2022-10-18T09:48:01.932Z,102983.94
2022-10-18T09:50:50.255Z,102984.69
2022-10-18T09:53:27.179Z,102986.06
2022-10-18T09:56:11.224Z,102984.00
2022-10-18T09:58:46.730Z,102989.00
2022-10-18T10:01:16.344Z,102993.88
2022-10-18T10:03:42.993Z,102986.50
2022-10-18T10:06:12.594Z,102989.34
2022-10-18T10:08:51.978Z,102993.28
2022-10-18T10:11:33.119Z,102992.00
2022-10-18T10:14:27.850Z,102988.31
2022-10-18T10:17:02.465Z,102992.00
2022-10-18T10:19:33.506Z,102996.06
2022-10-18T10:22:09.449Z,103003.38
2022-10-18T10:24:49.468Z,103000.00
2022-10-18T10:27:21.095Z,102999.34
2022-10-18T10:29:47.801Z,103010.09
2022-10-18T10:32:17.170Z,103007.50
2022-10-18T10:34:44.884Z,103005.22
2022-10-18T10:37:23.712Z,103001.44
2022-10-18T10:40:23.116Z,103015.63
2022-10-18T10:43:08.931Z,103012.28
2022-10-18T10:46:13.164Z,103005.47
2022-10-18T10:48:48.721Z,103014.28
2022-10-18T10:51:38.458Z,103017.88
2022-10-18T10:54:22.533Z,103018.91
2022-10-18T10:56:55.348Z,103024.84
2022-10-18T10:59:26.130Z,103025.53
2022-10-18T11:02:32.723Z,103021.97
2022-10-18T11:05:26.163Z,103020.94
2022-10-18T11:07:58.107Z,103022.91
2022-10-18T11:10:30.909Z,103015.50
2022-10-18T11:13:18.734Z,103019.78
2022-10-18T11:15:50.998Z,103029.53
2022-10-18T11:18:23.965Z,103025.38
2022-10-18T11:21:00.298Z,103015.31
2022-10-18T11:23:32.544Z,103018.78
2022-10-18T11:26:11.197Z,103025.03
2022-10-18T11:28:56.527Z,103012.28
2022-10-18T11:31:32.021Z,103014.84
2022-10-18T11:34:26.261Z,103011.28
2022-10-18T11:37:27.700Z,103010.81
2022-10-18T11:40:02.879Z,103019.53
2022-10-18T11:42:42.111Z,103013.97
2022-10-18T11:45:56.777Z,103016.06
2022-10-18T11:48:23.154Z,103027.06
2022-10-18T11:51:12.304Z,103017.22
2022-10-18T11:54:08.454Z,103024.75
2022-10-18T11:57:13.867Z,103013.97
2022-10-18T12:00:08.699Z,103024.19
2022-10-18T12:02:41.316Z,103018.72
2022-10-18T12:05:23.134Z,103016.88
2022-10-18T12:08:00.795Z,103009.34
2022-10-18T12:10:44.360Z,103015.84
2022-10-18T12:13:24.658Z,103013.28
2022-10-18T12:15:52.152Z,103011.19
2022-10-18T12:18:24.046Z,103008.31
2022-10-18T12:20:54.690Z,103007.38
2022-10-18T12:23:30.375Z,103004.47
2022-10-18T12:26:02.738Z,102994.97
2022-10-18T12:28:59.253Z,102999.50
2022-10-18T12:31:59.029Z,103007.59
2022-10-18T12:34:32.357Z,102994.75
2022-10-18T12:37:15.883Z,102994.75
2022-10-18T12:40:05.595Z,102996.38
2022-10-18T12:42:41.243Z,102997.41
2022-10-18T12:45:13.702Z,103002.97
2022-10-18T12:47:40.657Z,103006.91
2022-10-18T12:50:21.685Z,102997.88
2022-10-18T12:53:03.426Z,102998.00
2022-10-18T12:55:38.748Z,102994.28
2022-10-18T12:58:24.205Z,103001.34
2022-10-18T13:00:51.582Z,103001.00
2022-10-18T13:03:18.090Z,102996.94
2022-10-18T13:05:55.979Z,102983.63
2022-10-18T13:08:33.909Z,102987.22
2022-10-18T13:11:12.430Z,102987.44
2022-10-18T13:14:00.619Z,102976.19
2022-10-18T13:16:36.235Z,102962.97
2022-10-18T13:19:21.156Z,102958.81
2022-10-18T13:22:28.401Z,102968.44
2022-10-18T13:25:20.118Z,102964.00
2022-10-18T13:28:15.079Z,102961.56
2022-10-18T13:30:50.334Z,102966.91
2022-10-18T13:33:20.170Z,102963.56
2022-10-18T13:36:04.005Z,102966.69
2022-10-18T13:38:37.192Z,102975.03
2022-10-18T13:41:07.606Z,102978.63
2022-10-18T13:44:11.795Z,102978.47
2022-10-18T13:46:38.497Z,102989.03
2022-10-18T13:49:14.655Z,102981.59
2022-10-18T13:51:52.473Z,102976.16
2022-10-18T13:54:37.797Z,102978.63
2022-10-18T13:57:13.750Z,102979.66
2022-10-18T14:00:05.645Z,102976.28
2022-10-18T14:03:21.930Z,102988.31
2022-10-18T14:06:15.223Z,102980.25
2022-10-18T14:09:09.488Z,102978.72
2022-10-18T14:12:21.371Z,102972.25
2022-10-18T14:15:25.492Z,102992.31
2022-10-18T14:17:59.116Z,102984.78
2022-10-18T14:20:30.214Z,102983.97
2022-10-18T14:22:56.761Z,102987.56
2022-10-18T14:25:41.442Z,103000.06
2022-10-18T14:28:14.188Z,102991.50
2022-10-18T14:30:58.862Z,102988.72
2022-10-18T14:33:45.580Z,103002.50
2022-10-18T14:36:15.819Z,102993.47
2022-10-18T14:38:59.201Z,102991.94
2022-10-18T14:41:28.304Z,103003.63
2022-10-18T14:44:16.609Z,103002.59
2022-10-18T14:46:46.924Z,103003.50
2022-10-18T14:49:15.351Z,103003.63
2022-10-18T14:51:44.013Z,102998.88
2022-10-18T14:54:19.325Z,103000.84
2022-10-18T14:56:46.136Z,102997.44
2022-10-18T14:59:28.331Z,103003.69
2022-10-18T15:02:13.159Z,103009.09
2022-10-18T15:04:39.706Z,103009.22
2022-10-18T15:07:13.659Z,103006.44
2022-10-18T15:09:40.637Z,103015.91
2022-10-18T15:12:07.926Z,103011.47
2022-10-18T15:14:35.553Z,103008.44
2022-10-18T15:17:12.174Z,103009.94
2022-10-18T15:19:42.850Z,103009.94
2022-10-18T15:25:05.474Z,103011.13
2022-10-18T15:27:36.534Z,103012.84
2022-10-18T15:30:10.868Z,103010.63
2022-10-18T15:32:37.885Z,103005.59
2022-10-18T15:35:14.489Z,103005.44
2022-10-18T15:37:44.214Z,103000.78
2022-10-18T15:40:23.002Z,103009.69
2022-10-18T15:42:51.472Z,103010.34
2022-10-18T15:45:24.272Z,103013.06
2022-10-18T15:48:49.222Z,103013.13
2022-10-18T15:51:47.401Z,103014.00
2022-10-18T15:54:29.758Z,103010.81
2022-10-18T15:56:56.809Z,103019.09
2022-10-18T15:59:30.767Z,103025.28
2022-10-18T16:01:57.327Z,103023.13
2022-10-18T16:04:30.253Z,103020.94
2022-10-18T16:06:57.914Z,103019.63
2022-10-18T16:09:27.468Z,103022.72
2022-10-18T16:11:57.199Z,103020.91
2022-10-18T16:14:25.896Z,103012.19
2022-10-18T16:17:03.240Z,103022.50
2022-10-18T16:19:30.774Z,103025.81
2022-10-18T16:21:59.185Z,103029.13
2022-10-18T16:24:27.682Z,103022.91
2022-10-18T16:26:54.261Z,103021.91
2022-10-18T16:32:58.390Z,103029.31
2022-10-18T16:35:24.958Z,103024.50
2022-10-18T16:37:51.409Z,103037.56
2022-10-18T16:40:26.117Z,103035.19
2022-10-18T16:42:52.600Z,103042.09
2022-10-18T16:45:19.237Z,103032.31
2022-10-18T16:47:45.796Z,103037.81
2022-10-18T16:50:18.217Z,103042.75
2022-10-18T16:52:44.718Z,103036.44
2022-10-18T16:55:17.166Z,103043.75
2022-10-18T16:58:21.057Z,103047.22
2022-10-18T17:00:47.601Z,103052.69
2022-10-18T17:03:14.796Z,103065.69
2022-10-18T17:05:41.710Z,103062.00
2022-10-18T17:08:18.790Z,103063.63
2022-10-18T17:10:46.175Z,103068.06
2022-10-18T17:13:12.693Z,103069.47
2022-10-18T17:15:42.112Z,103072.03
2022-10-18T17:18:21.721Z,103070.19
2022-10-18T17:20:48.707Z,103076.44
2022-10-18T17:23:15.596Z,103067.06
2022-10-18T17:25:57.748Z,103086.41
2022-10-18T17:28:55.510Z,103080.25
2022-10-18T17:31:22.526Z,103084.09
2022-10-18T17:33:49.323Z,103088.50
2022-10-18T17:36:15.824Z,103093.75
2022-10-18T17:38:42.409Z,103097.34
2022-10-18T17:41:10.416Z,103084.69
2022-10-18T17:43:37.914Z,103089.09
2022-10-18T17:46:04.872Z,103084.41
2022-10-18T17:48:40.631Z,103084.72
2022-10-18T17:51:11.455Z,103085.22
2022-10-18T17:53:38.378Z,103087.19
2022-10-18T17:56:06.278Z,103094.06
2022-10-18T17:59:10.292Z,103096.88
2022-10-18T18:01:43.968Z,103098.38
2022-10-18T18:04:10.430Z,103095.88
2022-10-18T18:06:40.097Z,103101.91
2022-10-18T18:10:04.941Z,103110.19
2022-10-18T18:12:31.741Z,103113.13
2022-10-18T18:14:58.373Z,103109.72
2022-10-18T18:17:33.876Z,103105.63
2022-10-18T18:20:11.771Z,103112.56
2022-10-18T18:22:41.620Z,103115.75
2022-10-18T18:25:09.661Z,103114.88
2022-10-18T18:27:36.128Z,103113.50
2022-10-18T18:30:02.639Z,103116.69
2022-10-18T18:32:29.083Z,103111.97
2022-10-18T18:34:55.587Z,103122.25
2022-10-18T18:37:22.017Z,103117.16
2022-10-18T18:39:48.554Z,103117.09
2022-10-18T18:42:15.019Z,103118.81
2022-10-18T18:44:45.825Z,103120.53
2022-10-18T18:47:15.626Z,103128.31
2022-10-18T18:49:42.256Z,103130.25
2022-10-18T18:52:08.745Z,103138.75
2022-10-18T18:54:35.148Z,103136.50
2022-10-18T18:57:05.203Z,103144.84
2022-10-18T18:59:31.665Z,103139.81
2022-10-18T19:01:58.135Z,103142.16
2022-10-18T19:04:24.629Z,103142.69
2022-10-18T19:06:51.102Z,103137.50
2022-10-18T19:09:20.398Z,103133.59
2022-10-18T19:11:48.524Z,103139.50
2022-10-18T19:14:15.628Z,103141.31
2022-10-18T19:16:53.362Z,103137.56
2022-10-18T19:19:25.079Z,103147.81
2022-10-18T19:21:53.999Z,103148.69
2022-10-18T19:24:23.552Z,103139.31
2022-10-18T19:26:54.416Z,103143.75
2022-10-18T19:29:29.404Z,103147.38
2022-10-18T19:31:58.727Z,103143.53
2022-10-18T19:34:26.715Z,103144.41
2022-10-18T19:36:53.858Z,103141.28
2022-10-18T19:39:23.117Z,103143.16
2022-10-18T19:41:52.038Z,103144.13
2022-10-18T19:44:19.448Z,103143.84
2022-10-18T19:46:46.172Z,103135.63
2022-10-18T19:49:13.234Z,103132.34
2022-10-18T19:51:39.985Z,103127.09
2022-10-18T19:54:06.492Z,103123.81
2022-10-18T19:56:33.194Z,103135.16
2022-10-18T19:59:00.027Z,103134.50
2022-10-18T20:01:27.714Z,103128.78
2022-10-18T20:03:54.576Z,103130.28
2022-10-18T20:06:21.874Z,103135.88
2022-10-18T20:08:48.773Z,103132.59
2022-10-18T20:11:18.589Z,103135.63
2022-10-18T20:13:45.113Z,103138.44
2022-10-18T20:16:13.899Z,103140.91
2022-10-18T20:18:42.948Z,103144.69
2022-10-18T20:21:12.377Z,103141.75
2022-10-18T20:23:40.673Z,103143.75
2022-10-18T20:26:18.267Z,103139.84
2022-10-18T20:28:49.218Z,103145.09
2022-10-18T20:31:19.384Z,103149.69
2022-10-18T20:33:47.162Z,103147.25
2022-10-18T20:36:16.379Z,103143.47
2022-10-18T20:38:44.385Z,103145.28
2022-10-18T20:41:14.668Z,103144.78
2022-10-18T20:43:41.448Z,103149.72
2022-10-18T20:46:10.038Z,103141.50
2022-10-18T20:48:38.496Z,103135.94
2022-10-18T20:51:06.995Z,103135.81
2022-10-18T20:53:35.255Z,103133.66
2022-10-18T20:56:07.029Z,103137.44
2022-10-18T20:58:34.622Z,103134.50
2022-10-18T21:01:09.521Z,103133.66
2022-10-18T21:03:41.708Z,103129.06
2022-10-18T21:06:13.480Z,103130.53
2022-10-18T21:08:40.840Z,103125.13
2022-10-18T21:11:15.049Z,103132.84
2022-10-18T21:13:41.485Z,103130.06
2022-10-18T21:16:08.659Z,103124.78
2022-10-18T21:18:37.067Z,103126.78
2022-10-18T21:24:39.320Z,103116.75
2022-10-18T21:27:05.777Z,103130.34
2022-10-18T21:29:32.356Z,103120.34
2022-10-18T21:31:59.684Z,103129.34
2022-10-18T21:34:26.578Z,103122.63
2022-10-18T21:36:53.051Z,103124.78
2022-10-18T21:41:53.682Z,103129.53
2022-10-18T21:44:20.262Z,103125.78
2022-10-18T21:46:47.151Z,103133.63
2022-10-18T21:49:14.434Z,103135.88
2022-10-18T21:51:41.142Z,103130.81
2022-10-18T21:54:11.480Z,103144.03
2022-10-18T21:56:38.122Z,103137.47
2022-10-18T21:59:05.171Z,103137.28
2022-10-18T22:01:34.622Z,103134.50
2022-10-18T22:04:03.326Z,103131.22
2022-10-18T22:06:32.677Z,103132.84
2022-10-18T22:09:01.827Z,103119.13
2022-10-18T22:11:37.805Z,103116.50
2022-10-18T22:14:04.453Z,103124.00
2022-10-18T22:16:31.054Z,103120.06
2022-10-18T22:18:59.717Z,103115.81
2022-10-18T22:21:27.017Z,103120.84
2022-10-18T22:23:54.813Z,103117.41
2022-10-18T22:26:27.669Z,103120.03
2022-10-18T22:29:00.143Z,103118.34
2022-10-18T22:31:29.847Z,103117.38
2022-10-18T22:34:01.776Z,103113.25
2022-10-18T22:36:28.663Z,103111.56
2022-10-18T22:38:55.392Z,103115.00
2022-10-18T22:41:21.919Z,103110.78
2022-10-18T22:43:51.005Z,103114.09
2022-10-18T22:46:17.790Z,103110.31
2022-10-18T22:48:44.559Z,103112.13
2022-10-18T22:51:11.873Z,103113.75
2022-10-18T22:53:39.699Z,103110.47
2022-10-18T22:56:07.883Z,103110.78
2022-10-18T22:58:34.430Z,103113.56
2022-10-18T23:01:03.181Z,103107.81
2022-10-18T23:03:29.646Z,103108.13
2022-10-18T23:05:56.163Z,103105.81
2022-10-18T23:08:22.884Z,103111.06
2022-10-18T23:10:53.592Z,103109.09
2022-10-18T23:13:20.181Z,103108.44
2022-10-18T23:15:46.710Z,103100.59
2022-10-18T23:18:13.199Z,103104.19
2022-10-18T23:20:39.613Z,103100.06
2022-10-18T23:23:06.145Z,103099.91
2022-10-18T23:25:36.071Z,103096.16
2022-10-18T23:28:02.966Z,103096.31
2022-10-18T23:30:29.798Z,103102.69
2022-10-18T23:40:49.256Z,103105.88
